Time;durP1;ratioP1;P1;durP2;ratioP2;P2;SDS_P1;SDS_P2;PMS_P1;PMS_P2;Temp;Humidity;BMP_temperature;BMP_pressure;BME280_temperature;BME280_humidity;BME280_pressure;Samples;Min_cycle;Max_cycle;Signal;HPM_P1;HPM_P2
2023/03/11 00:00:36;;;;;;;;;;;;;;;9.28;88.87;92857.00;4225844;28;19930;-54
2023/03/11 00:02:38;;;;;;;;;;;;;;;9.27;88.22;92887.56;4224845;28;19924;-54
2023/03/11 00:04:40;;;;;;;;;;;;;;;9.14;86.44;92887.50;4226015;28;19924;-50
2023/03/11 00:06:41;;;;;;;;;;;;;;;9.12;85.98;92890.31;4225854;28;19919;-51
2023/03/11 00:08:43;;;;;;;;;;;;;;;8.93;86.33;92884.00;4222879;28;19930;-51
2023/03/11 00:10:45;;;;;;;;;;;;;;;8.84;87.08;92886.94;4218781;28;19920;-54
2023/03/11 00:12:46;;;;;;;;;;;;;;;8.78;87.64;92884.13;4217763;28;19946;-51
2023/03/11 00:14:48;;;;;;;;;;;;;;;8.67;87.82;92861.16;4232253;28;19920;-53
2023/03/11 00:16:49;;;;;;;;;;;;;;;8.58;89.01;92852.69;4232856;28;19958;-53
2023/03/11 00:18:51;;;;;;;;;;;;;;;8.60;89.41;92868.97;4232636;28;19919;-51
2023/03/11 00:20:53;;;;;;;;;;;;;;;8.58;88.94;92854.47;4229112;28;19919;-54
2023/03/11 00:22:55;;;;;;;;;;;;;;;8.48;88.74;92864.47;4220752;28;19927;-48
2023/03/11 00:24:56;;;;;;;;;;;;;;;8.50;88.99;92860.66;4224106;28;19931;-52
2023/03/11 00:26:58;;;;;;;;;;;;;;;8.50;89.23;92858.06;4197726;28;20156;-52
2023/03/11 00:28:59;;;;;;;;;;;;;;;8.54;89.75;92850.63;4213012;28;20297;-54
2023/03/11 00:31:01;;;;;;;;;;;;;;;8.73;89.76;92843.91;4198262;28;19989;-53
2023/03/11 00:33:03;;;;;;;;;;;;;;;8.94;89.47;92846.41;4198672;28;19921;-54
2023/03/11 00:35:05;;;;;;;;;;;;;;;9.09;88.21;92843.66;4210052;28;20465;-51
2023/03/11 00:37:06;;;;;;;;;;;;;;;9.27;87.58;92839.72;4198786;28;19927;-52
2023/03/11 00:39:09;;;;;;;;;;;;;;;9.41;86.21;92850.00;4200852;28;20283;-53
2023/03/11 00:41:11;;;;;;;;;;;;;;;9.52;84.58;92855.66;4209330;28;19920;-54
2023/03/11 00:43:13;;;;;;;;;;;;;;;9.63;83.72;92836.78;4202709;28;19931;-51
2023/03/11 00:45:14;;;;;;;;;;;;;;;9.71;83.04;92831.38;4207003;28;19927;-54
2023/03/11 00:47:16;;;;;;;;;;;;;;;9.78;83.13;92832.16;4206166;28;19919;-54
2023/03/11 00:49:17;;;;;;;;;;;;;;;9.87;82.26;92831.97;4215399;28;20412;-55
2023/03/11 00:51:19;;;;;;;;;;;;;;;9.95;81.56;92816.91;4214400;28;19930;-56
2023/03/11 00:53:20;;;;;;;;;;;;;;;10.04;81.37;92810.47;4212055;28;19924;-57
2023/03/11 00:55:22;;;;;;;;;;;;;;;10.12;80.78;92798.97;4204745;28;19955;-57
2023/03/11 00:57:26;;;;;;;;;;;;;;;10.20;80.50;92793.53;4216002;28;19927;-57
2023/03/11 00:59:28;;;;;;;;;;;;;;;10.21;79.90;92784.69;4220723;28;19919;-58
2023/03/11 01:01:29;;;;;;;;;;;;;;;10.28;79.46;92786.47;4228088;28;20369;-55
2023/03/11 01:03:31;;;;;;;;;;;;;;;10.31;79.04;92788.75;4208316;28;19970;-57
2023/03/11 01:05:33;;;;;;;;;;;;;;;10.24;78.52;92783.50;4205512;28;19920;-54
2023/03/11 01:07:34;;;;;;;;;;;;;;;10.16;78.78;92794.97;4216059;28;19974;-58
2023/03/11 01:09:36;;;;;;;;;;;;;;;10.09;79.08;92791.56;4227271;28;19972;-59
2023/03/11 01:11:37;;;;;;;;;;;;;;;9.97;79.42;92793.16;4215351;28;20040;-59
2023/03/11 01:13:39;;;;;;;;;;;;;;;9.91;80.01;92783.50;4205747;28;19923;-57
2023/03/11 01:15:41;;;;;;;;;;;;;;;9.99;81.03;92784.09;4219372;28;20379;-59
2023/03/11 01:17:42;;;;;;;;;;;;;;;10.06;80.34;92786.72;4208942;28;19920;-58
2023/03/11 01:19:44;;;;;;;;;;;;;;;10.07;80.20;92767.41;4217163;28;19988;-57
2023/03/11 01:21:45;;;;;;;;;;;;;;;10.10;79.66;92761.75;4207577;28;19976;-59
2023/03/11 01:23:47;;;;;;;;;;;;;;;10.02;80.24;92759.34;4211594;28;19921;-59
2023/03/11 01:25:48;;;;;;;;;;;;;;;10.01;80.09;92744.66;4207969;28;19925;-60
2023/03/11 01:27:50;;;;;;;;;;;;;;;10.08;80.44;92737.59;4201376;28;19924;-59
2023/03/11 01:29:51;;;;;;;;;;;;;;;10.11;80.34;92731.16;4218749;28;19919;-59
2023/03/11 01:31:53;;;;;;;;;;;;;;;10.20;80.11;92714.25;4222118;28;19919;-58
2023/03/11 01:33:54;;;;;;;;;;;;;;;10.28;80.15;92716.63;4215626;28;19936;-59
2023/03/11 01:35:56;;;;;;;;;;;;;;;10.40;80.55;92722.06;4211714;28;19927;-58
2023/03/11 01:37:57;;;;;;;;;;;;;;;10.45;80.55;92717.00;4223897;28;19920;-61
2023/03/11 01:39:59;;;;;;;;;;;;;;;10.46;80.49;92705.53;4222128;28;19958;-62
2023/03/11 01:42:00;;;;;;;;;;;;;;;10.49;80.39;92707.72;4210237;28;20160;-59
2023/03/11 01:44:03;;;;;;;;;;;;;;;10.48;80.45;92711.38;4206460;28;20015;-57
2023/03/11 01:46:22;;;;;;;;;;;;;;;10.11;80.52;92699.75;4204369;28;19943;-56
2023/03/11 01:48:23;;;;;;;;;;;;;;;9.36;83.83;92698.25;4214363;28;19971;-57
2023/03/11 01:50:26;;;;;;;;;;;;;;;9.08;86.42;92700.19;4211335;28;20540;-59
2023/03/11 01:52:27;;;;;;;;;;;;;;;8.96;86.72;92706.00;4214639;28;19919;-59
2023/03/11 01:54:30;;;;;;;;;;;;;;;8.76;87.17;92718.22;4208366;28;19958;-56
2023/03/11 01:56:31;;;;;;;;;;;;;;;8.69;87.45;92723.44;4197290;28;19970;-59
2023/03/11 01:58:34;;;;;;;;;;;;;;;8.78;87.59;92742.34;4217243;28;20300;-57
2023/03/11 02:00:36;;;;;;;;;;;;;;;8.86;86.67;92738.72;4203770;28;20346;-58
2023/03/11 02:02:42;;;;;;;;;;;;;;;9.03;85.93;92742.59;4201558;28;20010;-56
2023/03/11 02:04:43;;;;;;;;;;;;;;;9.23;84.09;92742.66;4226619;28;19920;-56
2023/03/11 02:06:45;;;;;;;;;;;;;;;9.41;83.07;92732.41;4230553;28;20342;-49
2023/03/11 02:08:46;;;;;;;;;;;;;;;9.47;81.29;92740.47;4203786;28;19975;-50
2023/03/11 02:10:48;;;;;;;;;;;;;;;9.59;81.47;92749.28;4226331;28;20319;-54
2023/03/11 02:12:49;;;;;;;;;;;;;;;9.68;81.70;92749.91;4211807;28;19920;-47
2023/03/11 02:14:52;;;;;;;;;;;;;;;9.83;81.49;92750.53;4210624;28;19920;-51
2023/03/11 02:16:54;;;;;;;;;;;;;;;9.99;80.98;92734.41;4194030;28;19951;-51
2023/03/11 02:18:56;;;;;;;;;;;;;;;10.07;80.51;92756.94;4205409;28;20347;-52
2023/03/11 02:21:01;;;;;;;;;;;;;;;10.14;80.96;92762.16;4201593;28;19926;-56
2023/03/11 02:23:02;;;;;;;;;;;;;;;10.20;80.16;92772.63;4208353;28;20370;-51
2023/03/11 02:25:19;;;;;;;;;;;;;;;10.24;80.51;92771.19;4200859;28;19920;-51
2023/03/11 02:27:20;;;;;;;;;;;;;;;10.05;81.25;92764.97;4202706;28;19935;-53
2023/03/11 02:29:22;;;;;;;;;;;;;;;10.02;81.12;92778.47;4205154;28;19930;-53
2023/03/11 02:31:24;;;;;;;;;;;;;;;9.80;81.55;92775.25;4194996;28;19967;-53
2023/03/11 02:33:25;;;;;;;;;;;;;;;9.86;82.29;92784.09;4197661;28;19924;-54
2023/03/11 02:35:27;;;;;;;;;;;;;;;9.92;81.56;92777.28;4182146;28;19920;-54
2023/03/11 02:37:29;;;;;;;;;;;;;;;9.93;77.12;92771.03;4185712;28;19986;-51
2023/03/11 02:39:31;;;;;;;;;;;;;;;10.02;75.43;92773.25;4208517;28;19973;-53
2023/03/11 02:41:34;;;;;;;;;;;;;;;10.16;72.26;92768.78;4212699;28;19966;-54
2023/03/11 02:43:42;;;;;;;;;;;;;;;10.27;70.76;92782.28;4218520;28;19920;-54
2023/03/11 02:45:44;;;;;;;;;;;;;;;10.43;70.19;92766.13;4189668;28;19955;-53
2023/03/11 02:47:46;;;;;;;;;;;;;;;10.49;70.14;92775.78;4189652;28;19963;-52
2023/03/11 02:49:47;;;;;;;;;;;;;;;10.54;69.64;92770.75;4215119;28;19974;-56
2023/03/11 02:51:49;;;;;;;;;;;;;;;10.62;69.46;92785.44;4206587;28;19920;-52
2023/03/11 02:53:52;;;;;;;;;;;;;;;10.65;70.41;92792.88;4199188;28;20440;-52
2023/03/11 02:55:53;;;;;;;;;;;;;;;10.60;70.24;92783.03;4199170;28;19971;-53
2023/03/11 02:57:55;;;;;;;;;;;;;;;10.63;70.50;92774.75;4213589;28;19998;-54
2023/03/11 02:59:56;;;;;;;;;;;;;;;10.65;70.84;92775.34;4220702;28;19967;-54
2023/03/11 03:01:58;;;;;;;;;;;;;;;10.64;70.55;92778.97;4208556;28;19920;-53
2023/03/11 03:03:59;;;;;;;;;;;;;;;10.73;70.82;92761.22;4225420;28;19941;-53
2023/03/11 03:06:01;;;;;;;;;;;;;;;10.69;70.07;92773.13;4226933;28;19924;-46
2023/03/11 03:08:02;;;;;;;;;;;;;;;10.70;69.36;92782.59;4228014;28;19919;-51
2023/03/11 03:10:04;;;;;;;;;;;;;;;10.72;69.34;92774.53;4219760;28;19920;-52
2023/03/11 03:12:06;;;;;;;;;;;;;;;10.72;69.17;92772.72;4222470;28;19976;-54
2023/03/11 03:14:08;;;;;;;;;;;;;;;10.78;68.58;92773.72;4224805;28;20342;-54
2023/03/11 03:16:09;;;;;;;;;;;;;;;10.78;67.62;92779.75;4218028;28;19920;-52
2023/03/11 03:18:11;;;;;;;;;;;;;;;10.77;67.93;92777.31;4228313;28;20006;-54
2023/03/11 03:20:13;;;;;;;;;;;;;;;10.77;68.26;92785.19;4225322;28;19973;-53
2023/03/11 03:22:14;;;;;;;;;;;;;;;10.84;67.72;92780.72;4225596;28;19930;-56
2023/03/11 03:24:16;;;;;;;;;;;;;;;10.86;67.29;92773.47;4223641;28;19920;-54
2023/03/11 03:26:17;;;;;;;;;;;;;;;10.85;66.98;92783.13;4220455;28;19927;-54
2023/03/11 03:28:19;;;;;;;;;;;;;;;10.80;66.86;92784.78;4226815;28;19923;-56
2023/03/11 03:30:20;;;;;;;;;;;;;;;10.82;65.99;92775.72;4213438;28;20131;-52
2023/03/11 03:32:22;;;;;;;;;;;;;;;10.85;66.06;92777.91;4226745;28;19981;-53
2023/03/11 03:34:23;;;;;;;;;;;;;;;10.84;65.71;92773.69;4226971;28;19919;-53
2023/03/11 03:36:25;;;;;;;;;;;;;;;10.91;65.36;92778.91;4224037;28;20354;-56
2023/03/11 03:38:26;;;;;;;;;;;;;;;10.89;65.27;92772.25;4223818;28;19969;-55
2023/03/11 03:40:28;;;;;;;;;;;;;;;10.91;64.71;92773.66;4227109;28;20330;-56
2023/03/11 03:42:30;;;;;;;;;;;;;;;10.93;64.00;92782.13;4227211;28;19919;-54
2023/03/11 03:44:32;;;;;;;;;;;;;;;11.03;63.56;92784.28;4214629;28;20345;-51
2023/03/11 03:46:34;;;;;;;;;;;;;;;11.03;64.11;92773.78;4221842;28;20346;-51
2023/03/11 03:48:35;;;;;;;;;;;;;;;11.02;63.32;92780.84;4218295;28;19919;-53
2023/03/11 03:50:38;;;;;;;;;;;;;;;11.02;62.90;92778.22;4223800;28;19920;-50
2023/03/11 03:52:39;;;;;;;;;;;;;;;11.03;63.12;92777.25;4224256;28;20006;-54
2023/03/11 03:54:41;;;;;;;;;;;;;;;11.09;62.32;92767.72;4193538;28;19989;-52
2023/03/11 03:56:42;;;;;;;;;;;;;;;11.14;62.76;92767.09;4205434;28;19920;-55
2023/03/11 03:58:44;;;;;;;;;;;;;;;11.14;62.65;92773.16;4207049;28;20419;-51
2023/03/11 04:00:46;;;;;;;;;;;;;;;11.14;62.84;92770.53;4225060;28;19967;-55
2023/03/11 04:02:47;;;;;;;;;;;;;;;11.14;62.27;92770.53;4208825;28;19920;-51
2023/03/11 04:04:49;;;;;;;;;;;;;;;11.12;62.34;92771.72;4206699;28;19928;-51
2023/03/11 04:06:50;;;;;;;;;;;;;;;11.12;62.42;92776.97;4228394;28;19978;-53
2023/03/11 04:08:52;;;;;;;;;;;;;;;11.10;62.52;92766.72;4228149;28;19920;-52
2023/03/11 04:10:56;;;;;;;;;;;;;;;11.12;62.70;92764.69;4227980;28;19919;-51
2023/03/11 04:12:58;;;;;;;;;;;;;;;11.10;62.81;92766.72;4210759;28;20370;-51
2023/03/11 04:14:59;;;;;;;;;;;;;;;11.15;62.04;92764.25;4217165;28;20382;-53
2023/03/11 04:17:01;;;;;;;;;;;;;;;11.06;62.05;92778.63;4218754;28;19979;-53
2023/03/11 04:19:04;;;;;;;;;;;;;;;11.04;62.57;92784.06;4194208;28;20373;-55
2023/03/11 04:21:06;;;;;;;;;;;;;;;11.00;61.76;92787.31;4195024;28;19950;-53
2023/03/11 04:23:07;;;;;;;;;;;;;;;11.02;61.66;92775.63;4204302;28;20405;-53
2023/03/11 04:25:09;;;;;;;;;;;;;;;11.02;62.23;92780.06;4200962;28;20003;-51
2023/03/11 04:27:10;;;;;;;;;;;;;;;11.00;62.42;92782.06;4225168;28;19920;-55
2023/03/11 04:29:12;;;;;;;;;;;;;;;11.02;62.21;92775.63;4212166;28;20435;-50
2023/03/11 04:31:13;;;;;;;;;;;;;;;10.99;61.98;92778.66;4211876;28;19977;-57
2023/03/11 04:33:16;;;;;;;;;;;;;;;11.02;61.86;92765.13;4200866;28;19920;-55
2023/03/11 04:35:17;;;;;;;;;;;;;;;11.01;62.15;92779.25;4196596;28;19986;-52
2023/03/11 04:37:19;;;;;;;;;;;;;;;11.04;61.95;92770.97;4207259;28;19921;-52
2023/03/11 04:39:20;;;;;;;;;;;;;;;11.07;62.31;92767.91;4204545;28;20405;-56
2023/03/11 04:41:22;;;;;;;;;;;;;;;11.09;62.49;92777.41;4200081;28;19920;-54
2023/03/11 04:43:24;;;;;;;;;;;;;;;11.09;61.91;92777.41;4197017;28;19920;-55
2023/03/11 04:45:25;;;;;;;;;;;;;;;11.13;61.51;92776.78;4199777;28;19921;-52
2023/03/11 04:47:27;;;;;;;;;;;;;;;11.12;61.01;92777.78;4205759;28;19928;-53
2023/03/11 04:49:28;;;;;;;;;;;;;;;11.13;61.00;92783.84;4201869;28;19920;-53
2023/03/11 04:51:30;;;;;;;;;;;;;;;11.16;61.08;92781.56;4208707;28;19920;-55
2023/03/11 04:53:32;;;;;;;;;;;;;;;11.15;60.68;92787.06;4203534;28;19928;-53
2023/03/11 04:55:33;;;;;;;;;;;;;;;11.17;60.21;92785.81;4205818;28;20393;-53
2023/03/11 04:57:35;;;;;;;;;;;;;;;11.14;60.59;92780.19;4210752;28;19989;-54
2023/03/11 04:59:36;;;;;;;;;;;;;;;11.16;60.20;92786.03;4210950;28;19927;-51
2023/03/11 05:01:38;;;;;;;;;;;;;;;11.14;60.53;92795.91;4204370;28;19920;-52
2023/03/11 05:03:39;;;;;;;;;;;;;;;11.16;60.78;92802.53;4224294;28;19920;-51
2023/03/11 05:05:41;;;;;;;;;;;;;;;11.17;60.73;92808.63;4230531;28;19923;-52
2023/03/11 05:07:42;;;;;;;;;;;;;;;11.19;60.60;92802.16;4231545;28;20045;-50
2023/03/11 05:09:44;;;;;;;;;;;;;;;11.22;60.81;92803.53;4225460;28;19928;-51
2023/03/11 05:11:46;;;;;;;;;;;;;;;11.17;60.37;92808.63;4223647;28;20006;-51
2023/03/11 05:13:47;;;;;;;;;;;;;;;11.13;60.53;92815.28;4230231;28;19920;-58
2023/03/11 05:15:48;;;;;;;;;;;;;;;11.15;60.65;92811.44;4214831;28;20353;-55
2023/03/11 05:17:50;;;;;;;;;;;;;;;11.17;60.38;92814.66;4203434;28;19924;-53
2023/03/11 05:19:52;;;;;;;;;;;;;;;11.21;60.33;92825.53;4204664;28;19967;-51
2023/03/11 05:21:54;;;;;;;;;;;;;;;11.21;60.20;92818.47;4210822;28;19920;-52
2023/03/11 05:23:56;;;;;;;;;;;;;;;11.22;60.27;92824.50;4214847;28;20443;-51
2023/03/11 05:25:57;;;;;;;;;;;;;;;11.18;60.33;92833.78;4208918;28;19920;-54
2023/03/11 05:27:59;;;;;;;;;;;;;;;11.10;60.74;92834.03;4198063;28;20328;-53
2023/03/11 05:30:00;;;;;;;;;;;;;;;11.05;60.09;92835.44;4197905;28;20382;-52
2023/03/11 05:32:02;;;;;;;;;;;;;;;11.11;60.52;92841.69;4197944;28;19924;-54
2023/03/11 05:34:03;;;;;;;;;;;;;;;11.09;60.37;92835.06;4198051;28;19947;-55
2023/03/11 05:36:06;;;;;;;;;;;;;;;11.13;60.44;92838.88;4206785;28;20537;-56
2023/03/11 05:38:07;;;;;;;;;;;;;;;11.11;61.02;92841.69;4201494;28;19920;-53
2023/03/11 05:40:09;;;;;;;;;;;;;;;11.09;61.14;92837.66;4202857;28;19919;-56
2023/03/11 05:42:11;;;;;;;;;;;;;;;11.11;61.19;92851.38;4196422;28;19920;-53
2023/03/11 05:44:12;;;;;;;;;;;;;;;11.01;61.90;92850.00;4205858;28;19978;-50
2023/03/11 05:46:14;;;;;;;;;;;;;;;11.12;61.74;92847.72;4210555;28;19924;-55
2023/03/11 05:48:15;;;;;;;;;;;;;;;11.10;61.74;92847.13;4208497;28;20280;-55
2023/03/11 05:50:17;;;;;;;;;;;;;;;11.17;61.76;92858.41;4211173;28;19927;-56
2023/03/11 05:52:18;;;;;;;;;;;;;;;11.15;61.35;92853.38;4204457;28;19931;-55
2023/03/11 05:54:20;;;;;;;;;;;;;;;11.19;60.90;92865.03;4211157;28;19920;-56
2023/03/11 05:56:22;;;;;;;;;;;;;;;11.22;61.15;92864.63;4224873;28;19982;-52
2023/03/11 05:58:23;;;;;;;;;;;;;;;11.23;61.15;92865.44;4215503;28;20308;-52
2023/03/11 06:00:28;;;;;;;;;;;;;;;11.16;61.13;92888.22;4215421;28;19920;-56
2023/03/11 06:02:29;;;;;;;;;;;;;;;11.11;61.88;92878.38;4205913;28;19920;-55
2023/03/11 06:04:31;;;;;;;;;;;;;;;11.15;62.02;92878.78;4213415;28;19935;-54
2023/03/11 06:06:32;;;;;;;;;;;;;;;11.16;62.13;92883.00;4212252;28;19924;-54
2023/03/11 06:08:34;;;;;;;;;;;;;;;11.04;62.47;92883.63;4204832;28;19939;-54
2023/03/11 06:10:36;;;;;;;;;;;;;;;11.12;62.79;92884.41;4210291;28;19920;-56
2023/03/11 06:12:37;;;;;;;;;;;;;;;11.07;62.95;92900.75;4228559;28;20003;-55
2023/03/11 06:16:59;;;;;;;;;;;;;;;10.84;64.29;92894.19;4201805;28;20023;-57
2023/03/11 06:19:01;;;;;;;;;;;;;;;10.80;65.02;92892.19;4210328;28;19977;-54
2023/03/11 06:21:02;;;;;;;;;;;;;;;10.86;65.34;92889.53;4198281;28;20460;-57
2023/03/11 06:23:04;;;;;;;;;;;;;;;10.82;65.83;92895.41;4224476;27;19920;-56
2023/03/11 06:25:06;;;;;;;;;;;;;;;10.82;65.83;92893.56;4211857;28;19920;-55
2023/03/11 06:27:10;;;;;;;;;;;;;;;10.85;65.66;92889.72;4202081;28;20010;-55
2023/03/11 06:29:12;;;;;;;;;;;;;;;10.88;65.62;92899.00;4203134;28;20015;-57
2023/03/11 06:31:26;;;;;;;;;;;;;;;10.86;64.88;92913.13;4214080;28;20447;-58
2023/03/11 06:33:28;;;;;;;;;;;;;;;10.85;65.03;92885.28;4216625;28;19920;-54
2023/03/11 06:35:30;;;;;;;;;;;;;;;10.81;64.97;92902.44;4199040;28;19920;-57
2023/03/11 06:37:32;;;;;;;;;;;;;;;10.80;64.57;92892.97;4205845;28;19982;-55
2023/03/11 06:39:33;;;;;;;;;;;;;;;10.89;64.87;92898.00;4213416;28;20385;-56
2023/03/11 06:41:35;;;;;;;;;;;;;;;10.89;65.10;92896.19;4216789;28;19923;-55
2023/03/11 06:43:36;;;;;;;;;;;;;;;10.94;64.66;92898.97;4200571;28;20313;-57
2023/03/11 06:45:38;;;;;;;;;;;;;;;10.99;64.33;92899.19;4207534;28;19920;-57
2023/03/11 06:47:40;;;;;;;;;;;;;;;11.03;63.90;92902.19;4204864;28;20305;-57
2023/03/11 06:49:41;;;;;;;;;;;;;;;11.05;63.63;92895.72;4202170;28;19925;-54
2023/03/11 06:51:43;;;;;;;;;;;;;;;11.02;63.70;92906.63;4214350;28;19920;-53
2023/03/11 06:53:47;;;;;;;;;;;;;;;11.02;63.84;92911.06;4211193;28;20219;-54
2023/03/11 06:56:00;;;;;;;;;;;;;;;10.91;64.33;92895.97;4202573;28;20495;-56
2023/03/11 06:58:02;;;;;;;;;;;;;;;10.98;64.15;92910.66;4214904;28;20412;-53
2023/03/11 07:00:06;;;;;;;;;;;;;;;10.91;63.89;92898.59;4212488;28;19959;-53
2023/03/11 07:02:09;;;;;;;;;;;;;;;10.95;64.15;92910.25;4209701;28;20030;-55
2023/03/11 07:04:10;;;;;;;;;;;;;;;10.99;63.71;92912.28;4229014;28;19919;-54
2023/03/11 07:06:16;;;;;;;;;;;;;;;10.93;63.90;92910.47;4210629;28;20026;-54
2023/03/11 07:08:18;;;;;;;;;;;;;;;10.99;63.51;92908.84;4230767;28;20335;-54
2023/03/11 07:10:19;;;;;;;;;;;;;;;11.10;64.14;92902.97;4229663;28;20019;-52
2023/03/11 07:12:21;;;;;;;;;;;;;;;11.16;64.05;92904.75;4229116;28;19919;-56
2023/03/11 07:14:23;;;;;;;;;;;;;;;11.21;63.67;92898.91;4224124;28;19960;-54
2023/03/11 07:16:25;;;;;;;;;;;;;;;11.21;63.90;92891.06;4211490;28;19924;-53
2023/03/11 07:18:27;;;;;;;;;;;;;;;11.17;63.65;92893.28;4217092;28;20014;-52
2023/03/11 07:20:29;;;;;;;;;;;;;;;11.19;63.42;92891.25;4213656;28;19920;-54
2023/03/11 07:22:30;;;;;;;;;;;;;;;11.23;63.17;92894.28;4213311;28;20004;-55
2023/03/11 07:24:32;;;;;;;;;;;;;;;11.31;62.67;92895.84;4205362;28;19924;-54
2023/03/11 07:26:34;;;;;;;;;;;;;;;11.35;62.67;92892.59;4207663;28;19920;-53
2023/03/11 07:28:35;;;;;;;;;;;;;;;11.39;62.40;92891.16;4199460;28;19924;-51
2023/03/11 07:30:37;;;;;;;;;;;;;;;11.43;61.65;92884.50;4208711;28;19927;-52
2023/03/11 07:32:40;;;;;;;;;;;;;;;11.38;62.32;92886.13;4198121;28;19971;-52
2023/03/11 07:34:41;;;;;;;;;;;;;;;11.32;62.87;92877.28;4196751;28;19924;-55
2023/03/11 07:36:43;;;;;;;;;;;;;;;11.27;62.76;92883.16;4196883;28;19921;-53
2023/03/11 07:38:45;;;;;;;;;;;;;;;11.42;62.63;92869.81;4196950;28;19924;-52
2023/03/11 07:40:46;;;;;;;;;;;;;;;11.56;61.65;92870.53;4204569;28;20297;-54
2023/03/11 07:42:48;;;;;;;;;;;;;;;11.73;60.21;92867.44;4224082;28;19959;-55
2023/03/11 07:44:50;;;;;;;;;;;;;;;11.70;58.89;92858.13;4207767;28;19932;-55
2023/03/11 07:46:52;;;;;;;;;;;;;;;11.78;59.22;92852.63;4228967;28;19930;-56
2023/03/11 07:48:53;;;;;;;;;;;;;;;11.67;59.11;92851.50;4228609;28;20007;-57
2023/03/11 07:51:02;;;;;;;;;;;;;;;11.79;58.95;92842.97;4226758;28;19942;-57
2023/03/11 07:53:03;;;;;;;;;;;;;;;11.89;59.27;92851.19;4218771;28;20298;-54
2023/03/11 07:55:05;;;;;;;;;;;;;;;12.11;58.66;92851.66;4204277;28;20316;-55
2023/03/11 07:57:08;;;;;;;;;;;;;;;12.06;58.95;92849.66;4212445;28;19919;-54
2023/03/11 07:59:09;;;;;;;;;;;;;;;12.17;58.04;92855.22;4214526;28;19920;-57
2023/03/11 08:01:14;;;;;;;;;;;;;;;12.25;57.14;92842.66;4201253;28;19946;-56
2023/03/11 08:03:15;;;;;;;;;;;;;;;12.31;57.32;92832.31;4209007;28;20014;-55
2023/03/11 08:05:19;;;;;;;;;;;;;;;12.41;56.48;92822.09;4214008;28;19920;-54
2023/03/11 08:07:21;;;;;;;;;;;;;;;12.56;56.28;92829.66;4217831;28;19930;-57
2023/03/11 08:09:22;;;;;;;;;;;;;;;12.63;55.03;92815.44;4202122;28;19924;-55
2023/03/11 08:11:24;;;;;;;;;;;;;;;12.63;54.94;92809.41;4207875;28;19963;-56
2023/03/11 08:13:25;;;;;;;;;;;;;;;12.76;54.37;92811.09;4207670;28;19924;-55
2023/03/11 08:15:27;;;;;;;;;;;;;;;12.90;54.53;92800.19;4212528;28;20040;-56
2023/03/11 08:17:28;;;;;;;;;;;;;;;13.08;54.11;92799.38;4202130;28;19969;-57
2023/03/11 08:19:30;;;;;;;;;;;;;;;13.20;53.96;92791.56;4223336;28;20010;-55
2023/03/11 08:21:31;;;;;;;;;;;;;;;13.24;52.40;92786.66;4210993;28;19946;-54
2023/03/11 08:23:33;;;;;;;;;;;;;;;13.34;52.68;92786.97;4224106;28;19978;-58
2023/03/11 08:25:37;;;;;;;;;;;;;;;13.40;52.70;92780.00;4224905;28;19928;-54
2023/03/11 08:27:39;;;;;;;;;;;;;;;13.53;52.50;92771.94;4218121;28;19989;-53
2023/03/11 08:29:40;;;;;;;;;;;;;;;13.49;51.77;92765.53;4229821;28;19965;-57
2023/03/11 08:31:42;;;;;;;;;;;;;;;13.54;52.10;92763.00;4230423;28;19984;-62
2023/03/11 08:33:44;;;;;;;;;;;;;;;13.49;52.12;92771.59;4230971;28;19923;-61
2023/03/11 08:35:46;;;;;;;;;;;;;;;13.61;52.29;92757.66;4230019;28;20005;-62
2023/03/11 08:37:48;;;;;;;;;;;;;;;13.60;51.77;92763.97;4231365;28;19984;-61
2023/03/11 08:39:49;;;;;;;;;;;;;;;13.59;51.50;92788.66;4229328;28;19973;-61
2023/03/11 08:41:51;;;;;;;;;;;;;;;13.60;51.53;92761.31;4231375;28;20422;-60
2023/03/11 08:43:52;;;;;;;;;;;;;;;13.44;51.72;92753.06;4231220;28;19924;-60
2023/03/11 08:45:54;;;;;;;;;;;;;;;13.58;51.38;92756.28;4214348;28;19927;-59
2023/03/11 08:47:56;;;;;;;;;;;;;;;13.72;51.60;92752.44;4227642;28;19927;-60
2023/03/11 08:49:57;;;;;;;;;;;;;;;13.88;50.90;92756.22;4229631;28;19923;-61
2023/03/11 08:52:00;;;;;;;;;;;;;;;14.00;50.66;92750.16;4222750;28;19920;-60
2023/03/11 08:54:02;;;;;;;;;;;;;;;13.99;50.45;92741.47;4215555;28;19935;-60
2023/03/11 08:56:03;;;;;;;;;;;;;;;14.16;50.37;92748.72;4210553;28;19960;-58
2023/03/11 08:58:05;;;;;;;;;;;;;;;14.07;50.16;92740.34;4221848;28;20360;-63
2023/03/11 09:00:08;;;;;;;;;;;;;;;14.25;50.14;92742.88;4229547;28;19924;-62
2023/03/11 09:02:12;;;;;;;;;;;;;;;14.24;49.76;92741.28;4216011;28;19920;-57
2023/03/11 09:04:14;;;;;;;;;;;;;;;14.39;48.72;92740.81;4215356;28;19927;-59
2023/03/11 09:06:16;;;;;;;;;;;;;;;14.38;48.52;92743.66;4213628;28;19927;-60
2023/03/11 09:08:18;;;;;;;;;;;;;;;14.54;48.60;92743.78;4223166;28;20355;-61
2023/03/11 09:10:19;;;;;;;;;;;;;;;14.45;48.80;92749.59;4232089;28;19930;-61
2023/03/11 09:12:21;;;;;;;;;;;;;;;14.14;48.86;92770.00;4231880;28;20452;-62
2023/03/11 09:14:22;;;;;;;;;;;;;;;13.92;49.96;92746.84;4227046;28;19920;-62
2023/03/11 09:16:24;;;;;;;;;;;;;;;13.89;50.59;92749.91;4212861;28;19931;-62
2023/03/11 09:18:26;;;;;;;;;;;;;;;14.04;50.42;92743.44;4208709;28;19927;-61
2023/03/11 09:20:27;;;;;;;;;;;;;;;14.20;50.83;92742.75;4213622;28;20010;-61
2023/03/11 09:22:29;;;;;;;;;;;;;;;14.16;50.30;92746.88;4231059;28;19941;-62
2023/03/11 09:24:33;;;;;;;;;;;;;;;14.08;50.91;92755.91;4223223;28;19919;-61
2023/03/11 09:26:35;;;;;;;;;;;;;;;14.21;50.30;92739.09;4213781;28;19923;-62
2023/03/11 09:28:37;;;;;;;;;;;;;;;14.38;50.50;92743.66;4225322;28;19967;-61
2023/03/11 09:30:38;;;;;;;;;;;;;;;14.46;50.93;92738.06;4229862;28;19920;-62
2023/03/11 09:32:39;;;;;;;;;;;;;;;14.67;50.74;92737.50;4211760;28;20382;-58
2023/03/11 09:34:41;;;;;;;;;;;;;;;14.72;50.60;92728.88;4219469;28;20393;-62
2023/03/11 09:36:43;;;;;;;;;;;;;;;14.64;49.47;92716.06;4203290;28;19920;-64
2023/03/11 09:38:44;;;;;;;;;;;;;;;14.69;49.29;92702.97;4203045;28;20274;-61
2023/03/11 09:40:51;;;;;;;;;;;;;;;14.58;47.67;92701.97;4207552;28;19920;-63
2023/03/11 09:43:01;;;;;;;;;;;;;;;14.59;46.87;92718.59;4182074;28;19963;-61
2023/03/11 09:45:18;;;;;;;;;;;;;;;14.72;47.76;92705.94;4188106;28;19967;-62
2023/03/11 09:47:24;;;;;;;;;;;;;;;14.98;47.62;92719.63;4181106;28;19928;-62
2023/03/11 09:49:47;;;;;;;;;;;;;;;15.10;46.81;92714.31;4192451;28;19920;-61
2023/03/11 09:51:52;;;;;;;;;;;;;;;15.04;45.93;92729.25;4182811;28;19920;-61
2023/03/11 09:53:55;;;;;;;;;;;;;;;15.02;45.84;92727.88;4216593;28;19970;-61
2023/03/11 09:55:57;;;;;;;;;;;;;;;15.02;46.56;92718.13;4195305;28;19967;-62
2023/03/11 09:58:01;;;;;;;;;;;;;;;15.05;45.99;92709.75;4205473;28;19971;-62
2023/03/11 10:00:03;;;;;;;;;;;;;;;15.21;44.45;92707.38;4200873;28;19943;-62
2023/03/11 10:02:05;;;;;;;;;;;;;;;15.24;44.07;92728.03;4209395;28;19944;-60
2023/03/11 10:04:09;;;;;;;;;;;;;;;15.16;43.96;92708.09;4210898;28;19927;-61
2023/03/11 10:06:13;;;;;;;;;;;;;;;15.49;44.13;92715.31;4187943;28;19920;-61
2023/03/11 10:08:27;;;;;;;;;;;;;;;15.62;44.90;92710.78;4198448;28;20344;-61
2023/03/11 10:10:29;;;;;;;;;;;;;;;15.49;44.75;92717.16;4202523;28;19919;-61
2023/03/11 10:12:37;;;;;;;;;;;;;;;15.18;44.42;92731.59;4190856;28;20226;-62
2023/03/11 10:14:59;;;;;;;;;;;;;;;15.05;44.17;92728.19;4210051;28;19970;-61
2023/03/11 10:17:19;;;;;;;;;;;;;;;15.10;44.55;92730.13;4168613;28;20430;-60
2023/03/11 10:19:24;;;;;;;;;;;;;;;15.09;44.55;92733.81;4197674;28;19924;-62
2023/03/11 10:21:25;;;;;;;;;;;;;;;14.98;45.03;92732.81;4200862;28;19924;-61
2023/03/11 10:23:42;;;;;;;;;;;;;;;14.88;45.24;92736.03;4231123;28;19963;-61
2023/03/11 10:25:47;;;;;;;;;;;;;;;14.73;45.95;92739.19;4212541;28;20355;-62
2023/03/11 10:27:57;;;;;;;;;;;;;;;14.59;45.85;92735.19;4230667;28;20018;-55
2023/03/11 10:30:08;;;;;;;;;;;;;;;14.57;46.35;92733.84;4211852;28;19966;-56
2023/03/11 10:32:16;;;;;;;;;;;;;;;14.59;46.18;92737.84;4187589;28;19920;-54
2023/03/11 10:34:31;;;;;;;;;;;;;;;14.51;46.31;92735.53;4210932;28;20015;-58
2023/03/11 10:36:34;;;;;;;;;;;;;;;14.65;45.64;92734.28;4210025;28;19920;-55
2023/03/11 10:38:41;;;;;;;;;;;;;;;14.67;45.17;92729.59;4229216;28;19965;-55
2023/03/11 10:40:43;;;;;;;;;;;;;;;14.38;44.32;92720.75;4204073;28;19924;-58